createdAt,value
2022-08-05T00:02:51.283Z,46.60
2022-08-05T00:06:05.235Z,46.96
2022-08-05T00:09:19.439Z,47.57
2022-08-05T00:12:22.876Z,47.18
2022-08-05T00:15:55.906Z,47.12
2022-08-05T00:18:50.218Z,46.99
2022-08-05T00:21:54.109Z,47.16
2022-08-05T00:24:57.276Z,47.24
2022-08-05T00:28:00.097Z,48.30
2022-08-05T00:31:04.783Z,48.09
2022-08-05T00:34:54.967Z,48.73
2022-08-05T00:37:51.207Z,48.57
2022-08-05T00:40:58.364Z,49.18
2022-08-05T00:44:03.229Z,48.90
2022-08-05T00:47:06.000Z,49.12
2022-08-05T00:50:09.942Z,49.15
2022-08-05T00:53:44.915Z,48.35
2022-08-05T00:56:36.012Z,49.04
2022-08-05T00:59:44.452Z,48.83
2022-08-05T01:02:50.167Z,48.31
2022-08-05T01:05:54.474Z,48.23
2022-08-05T01:08:57.992Z,47.94
2022-08-05T01:12:18.100Z,46.63
2022-08-05T01:15:35.159Z,43.77
2022-08-05T01:18:48.198Z,44.05
2022-08-05T01:22:15.422Z,46.29
2022-08-05T01:25:40.908Z,45.88
2022-08-05T01:28:54.573Z,43.34
2022-08-05T01:32:01.211Z,43.28
2022-08-05T01:35:10.930Z,43.07
2022-08-05T01:38:14.572Z,42.13
2022-08-05T01:41:33.830Z,42.98
2022-08-05T01:44:37.667Z,42.35
2022-08-05T01:47:43.467Z,41.76
2022-08-05T01:50:50.854Z,43.64
2022-08-05T01:53:58.844Z,44.11
2022-08-05T01:58:29.163Z,45.50
2022-08-05T02:00:30.755Z,44.28
2022-08-05T02:03:39.957Z,44.76
2022-08-05T02:06:45.003Z,45.36
2022-08-05T02:09:48.355Z,45.83
2022-08-05T02:12:57.908Z,46.33
2022-08-05T02:16:33.122Z,46.05
2022-08-05T02:19:47.258Z,44.30
2022-08-05T02:22:57.218Z,43.84
2022-08-05T02:26:01.236Z,42.60
2022-08-05T02:29:06.859Z,41.26
2022-08-05T02:32:30.994Z,40.16
2022-08-05T02:35:37.752Z,40.06
2022-08-05T02:38:52.854Z,39.54
2022-08-05T02:42:01.294Z,38.72
2022-08-05T02:45:05.155Z,40.05
2022-08-05T02:48:12.430Z,39.88
2022-08-05T02:51:16.340Z,38.65
2022-08-05T02:54:35.651Z,38.10
2022-08-05T02:58:12.296Z,38.65
2022-08-05T03:01:03.725Z,38.25
2022-08-05T03:04:14.112Z,39.86
2022-08-05T03:07:59.123Z,40.22
2022-08-05T03:11:53.642Z,38.06
2022-08-05T03:14:08.921Z,37.70
2022-08-05T03:17:16.072Z,37.71
2022-08-05T03:20:19.146Z,39.26
2022-08-05T03:23:24.126Z,37.77
2022-08-05T03:26:31.436Z,37.94
2022-08-05T03:29:45.959Z,39.05
2022-08-05T03:33:02.416Z,38.96
2022-08-05T03:36:06.624Z,38.09
2022-08-05T03:39:20.210Z,39.04
2022-08-05T03:42:32.209Z,39.73
2022-08-05T03:45:57.950Z,37.82
2022-08-05T03:48:59.742Z,37.76
2022-08-05T03:52:50.256Z,38.95
2022-08-05T03:56:04.501Z,38.10
2022-08-05T03:59:03.845Z,38.42
2022-08-05T04:02:14.854Z,39.97
2022-08-05T04:05:23.113Z,37.96
2022-08-05T04:08:34.681Z,40.34
2022-08-05T04:11:50.651Z,41.06
2022-08-05T04:14:57.782Z,39.59
2022-08-05T04:18:06.626Z,39.31
2022-08-05T04:21:11.121Z,39.16
2022-08-05T04:24:19.529Z,39.27
2022-08-05T04:27:41.546Z,41.52
2022-08-05T04:30:45.470Z,42.49
2022-08-05T04:34:17.302Z,41.79
2022-08-05T04:37:11.722Z,40.62
2022-08-05T04:40:19.473Z,39.25
2022-08-05T04:43:22.910Z,41.68
2022-08-05T04:46:28.887Z,40.54
2022-08-05T04:49:38.482Z,41.93
2022-08-05T04:52:54.787Z,43.14
2022-08-05T04:56:14.311Z,44.13
2022-08-05T04:59:23.849Z,44.30
2022-08-05T05:02:43.122Z,43.90
2022-08-05T05:06:39.231Z,45.08
2022-08-05T05:09:13.283Z,44.25
2022-08-05T05:12:17.185Z,44.05
2022-08-05T05:15:59.105Z,43.32
2022-08-05T05:18:57.100Z,43.45
2022-08-05T05:22:24.411Z,42.60
2022-08-05T05:25:32.487Z,43.00
2022-08-05T05:28:42.690Z,43.55
2022-08-05T05:31:47.703Z,43.55
2022-08-05T05:34:52.457Z,43.16
2022-08-05T05:37:59.491Z,43.87
2022-08-05T05:41:04.242Z,43.73
2022-08-05T05:44:35.761Z,43.64
2022-08-05T05:48:06.011Z,43.44
2022-08-05T05:50:59.458Z,43.67
2022-08-05T05:54:18.515Z,43.33
2022-08-05T05:57:22.623Z,42.57
2022-08-05T06:00:27.836Z,42.83
2022-08-05T06:03:53.944Z,42.91
2022-08-05T06:07:01.584Z,41.84
2022-08-05T06:10:10.168Z,42.30
2022-08-05T06:13:14.467Z,42.18
2022-08-05T06:16:30.335Z,41.72
2022-08-05T06:19:35.779Z,42.58
2022-08-05T06:22:40.496Z,41.90
2022-08-05T06:26:12.201Z,39.26
2022-08-05T06:29:25.389Z,38.47
2022-08-05T06:32:31.826Z,36.40
2022-08-05T06:36:04.191Z,35.44
2022-08-05T06:38:57.754Z,34.07
2022-08-05T06:42:04.082Z,33.02
2022-08-05T06:45:09.483Z,33.56
2022-08-05T06:48:53.232Z,34.50
2022-08-05T06:51:36.533Z,32.97
2022-08-05T06:54:44.003Z,32.98
2022-08-05T06:57:57.166Z,32.57
2022-08-05T07:01:07.613Z,31.60
2022-08-05T07:04:10.852Z,30.52
2022-08-05T07:07:24.194Z,31.02
2022-08-05T07:10:52.770Z,30.59
2022-08-05T07:14:20.793Z,31.35
2022-08-05T07:18:02.124Z,31.53
2022-08-05T07:20:56.386Z,30.26
2022-08-05T07:24:01.278Z,30.33
2022-08-05T07:27:05.134Z,30.30
2022-08-05T07:30:28.014Z,29.87
2022-08-05T07:33:36.409Z,30.89
2022-08-05T07:36:41.817Z,31.36
2022-08-05T07:40:04.348Z,31.04
2022-08-05T07:43:14.786Z,29.63
2022-08-05T07:46:26.586Z,29.90
2022-08-05T07:49:29.384Z,29.66
2022-08-05T07:52:32.420Z,30.45
2022-08-05T07:55:44.607Z,30.77
2022-08-05T07:58:59.144Z,29.68
2022-08-05T08:02:03.147Z,30.40
2022-08-05T08:05:07.639Z,30.24
2022-08-05T08:08:14.205Z,29.65
2022-08-05T08:11:19.290Z,29.57
2022-08-05T08:14:30.591Z,28.95
2022-08-05T08:17:34.445Z,28.57
2022-08-05T08:21:00.051Z,28.81
2022-08-05T08:24:04.918Z,28.93
2022-08-05T08:27:09.021Z,28.34
2022-08-05T08:30:20.237Z,28.04
2022-08-05T08:33:37.415Z,28.64
2022-08-05T08:36:48.803Z,29.10
2022-08-05T08:39:53.547Z,28.08
2022-08-05T08:45:19.456Z,28.32
2022-08-05T08:46:24.522Z,28.12
2022-08-05T08:50:06.141Z,28.73
2022-08-05T08:52:58.497Z,27.97
2022-08-05T08:56:05.973Z,28.53
2022-08-05T08:59:14.940Z,27.23
2022-08-05T09:02:26.635Z,27.71
2022-08-05T09:05:38.767Z,28.36
2022-08-05T09:08:53.060Z,27.67
2022-08-05T09:12:00.186Z,27.75
2022-08-05T09:15:09.779Z,28.49
2022-08-05T09:18:13.274Z,27.50
2022-08-05T09:21:20.774Z,26.28
2022-08-05T09:24:24.219Z,27.25
2022-08-05T09:28:05.017Z,27.26
2022-08-05T09:31:43.687Z,27.02
2022-08-05T09:34:52.400Z,27.55
2022-08-05T09:38:17.303Z,26.91
2022-08-05T09:41:19.723Z,28.01
2022-08-05T09:44:40.029Z,26.45
2022-08-05T09:47:54.949Z,26.86
2022-08-05T09:51:04.756Z,29.48
2022-08-05T09:54:31.346Z,29.49
2022-08-05T09:57:35.490Z,27.92
2022-08-05T10:00:56.964Z,27.65
2022-08-05T10:04:10.692Z,28.09
2022-08-05T10:07:20.332Z,28.25
2022-08-05T10:10:54.570Z,28.21
2022-08-05T10:13:57.578Z,29.04
2022-08-05T10:17:36.934Z,27.75
2022-08-05T10:20:47.741Z,28.31
2022-08-05T10:23:59.512Z,27.99
2022-08-05T10:27:03.814Z,27.04
2022-08-05T10:32:48.233Z,24.32
2022-08-05T10:33:36.052Z,23.86
2022-08-05T10:36:40.803Z,23.75
2022-08-05T10:40:03.375Z,24.82
2022-08-05T10:43:35.900Z,24.84
2022-08-05T10:46:50.945Z,23.35
2022-08-05T10:50:33.286Z,24.46
2022-08-05T10:53:48.857Z,23.91
2022-08-05T10:56:57.177Z,23.16
2022-08-05T11:00:20.028Z,22.53
2022-08-05T11:03:26.906Z,22.98
2022-08-05T11:06:31.343Z,22.76
2022-08-05T11:09:52.005Z,23.03
2022-08-05T11:13:40.453Z,23.20
2022-08-05T11:18:07.474Z,22.41
2022-08-05T11:20:56.514Z,22.46
2022-08-05T11:24:16.291Z,21.71
2022-08-05T11:27:51.024Z,21.04
2022-08-05T11:30:56.067Z,21.64
2022-08-05T11:34:08.142Z,24.33
2022-08-05T11:38:30.622Z,22.12
2022-08-05T11:42:01.020Z,20.98
2022-08-05T11:45:05.221Z,20.01
2022-08-05T11:48:11.605Z,20.84
2022-08-05T11:51:14.956Z,20.25
2022-08-05T11:54:40.608Z,20.35
2022-08-05T11:58:10.895Z,20.45
2022-08-05T12:01:15.433Z,20.78
2022-08-05T12:04:23.815Z,20.08
2022-08-05T12:08:03.703Z,19.43
2022-08-05T12:10:59.934Z,20.17
2022-08-05T12:14:10.301Z,19.05
2022-08-05T12:18:04.042Z,19.31
2022-08-05T12:20:38.977Z,18.88
2022-08-05T12:24:07.167Z,18.74
2022-08-05T12:27:21.677Z,18.12
2022-08-05T12:30:38.137Z,18.73
2022-08-05T12:33:48.999Z,18.94
2022-08-05T12:36:53.795Z,17.80
2022-08-05T12:40:03.112Z,18.37
2022-08-05T12:43:07.435Z,18.35
2022-08-05T12:46:28.027Z,18.55
2022-08-05T12:50:03.629Z,18.55
2022-08-05T12:53:08.181Z,18.12
2022-08-05T12:56:35.063Z,17.89
2022-08-05T13:01:57.764Z,17.45
2022-08-05T13:03:14.833Z,16.35
2022-08-05T13:06:19.694Z,15.21
2022-08-05T13:09:27.882Z,14.92
2022-08-05T13:12:31.165Z,14.85
2022-08-05T13:15:42.131Z,13.65
2022-08-05T13:18:57.705Z,13.33
2022-08-05T13:22:01.560Z,13.16
2022-08-05T13:25:19.003Z,14.08
2022-08-05T13:28:22.745Z,13.92
2022-08-05T13:32:03.152Z,12.71
2022-08-05T13:34:49.517Z,12.41
2022-08-05T13:37:55.592Z,12.79
2022-08-05T13:41:00.093Z,14.67
2022-08-05T13:44:03.801Z,14.37
2022-08-05T13:47:08.658Z,12.74
2022-08-05T13:50:16.480Z,12.51
2022-08-05T13:53:19.931Z,13.85
2022-08-05T13:56:22.915Z,12.66
2022-08-05T13:59:27.504Z,12.40
2022-08-05T14:02:33.616Z,12.96
2022-08-05T14:06:04.821Z,12.43
2022-08-05T14:08:59.661Z,12.89
2022-08-05T14:12:17.781Z,13.59
2022-08-05T14:16:05.217Z,13.63
2022-08-05T14:18:44.726Z,12.92
2022-08-05T14:22:10.085Z,13.77
2022-08-05T14:25:19.146Z,13.78
2022-08-05T14:28:26.548Z,12.77
2022-08-05T14:32:03.704Z,12.06
2022-08-05T14:34:53.742Z,12.16
2022-08-05T14:37:58.507Z,11.54
2022-08-05T14:41:06.139Z,11.44
2022-08-05T14:44:20.596Z,11.67
2022-08-05T14:48:02.468Z,11.59
2022-08-05T14:50:48.714Z,12.02
2022-08-05T14:54:26.283Z,11.84
2022-08-05T14:57:15.554Z,11.77
2022-08-05T15:00:21.539Z,11.96
2022-08-05T15:03:33.606Z,11.75
2022-08-05T15:06:37.231Z,10.63
2022-08-05T15:09:51.617Z,10.67
2022-08-05T15:13:03.754Z,10.62
2022-08-05T15:16:08.089Z,9.94
2022-08-05T15:19:23.171Z,10.66
2022-08-05T15:22:28.461Z,10.37
2022-08-05T15:25:51.667Z,9.75
2022-08-05T15:28:54.608Z,9.45
2022-08-05T15:32:02.958Z,8.74
2022-08-05T15:35:10.575Z,8.59
2022-08-05T15:38:34.146Z,9.57
2022-08-05T15:41:56.190Z,8.97
2022-08-05T15:45:01.052Z,9.34
2022-08-05T15:48:04.604Z,9.43
2022-08-05T15:51:07.686Z,10.62
2022-08-05T15:54:11.045Z,9.68
2022-08-05T15:57:18.095Z,9.83
2022-08-05T16:00:26.167Z,8.46
2022-08-05T16:03:35.868Z,9.38
2022-08-05T16:06:44.346Z,9.81
2022-08-05T16:09:49.446Z,10.13
2022-08-05T16:12:52.409Z,9.66
2022-08-05T16:15:58.824Z,9.22
2022-08-05T16:19:02.350Z,9.55
2022-08-05T16:22:06.060Z,9.89
2022-08-05T16:25:10.264Z,10.79
2022-08-05T16:28:14.173Z,10.07
2022-08-05T16:31:18.680Z,9.51
2022-08-05T16:34:23.184Z,9.58
2022-08-05T16:38:16.147Z,9.72
2022-08-05T16:40:55.606Z,10.74
2022-08-05T16:44:04.870Z,10.17
2022-08-05T16:47:07.929Z,10.13
2022-08-05T16:50:30.785Z,9.61
2022-08-05T16:54:04.273Z,9.79
2022-08-05T16:56:58.026Z,10.24
2022-08-05T17:00:08.336Z,10.62
2022-08-05T17:03:15.237Z,10.28
2022-08-05T17:06:24.462Z,11.35
2022-08-05T17:09:57.612Z,11.61
2022-08-05T17:12:55.640Z,11.69
2022-08-05T17:16:13.162Z,12.54
2022-08-05T17:19:22.244Z,14.52
2022-08-05T17:22:25.953Z,16.18
2022-08-05T17:25:39.525Z,18.18
2022-08-05T17:28:43.447Z,19.47
2022-08-05T17:31:58.499Z,20.99
2022-08-05T17:35:02.389Z,22.09
2022-08-05T17:38:09.045Z,22.74
2022-08-05T17:42:18.544Z,23.09
2022-08-05T17:44:34.914Z,23.53
2022-08-05T17:47:38.984Z,24.09
2022-08-05T17:50:42.234Z,24.31
2022-08-05T17:53:53.563Z,24.35
2022-08-05T17:56:57.711Z,24.25
2022-08-05T18:00:03.685Z,24.61
2022-08-05T18:03:08.756Z,24.47
2022-08-05T18:06:14.958Z,24.71
2022-08-05T18:09:18.703Z,24.37
2022-08-05T18:12:22.365Z,24.80
2022-08-05T18:15:31.192Z,24.65
2022-08-05T18:18:39.589Z,24.72
2022-08-05T18:22:09.010Z,25.06
2022-08-05T18:25:06.860Z,24.96
2022-08-05T18:28:10.011Z,25.30
2022-08-05T18:31:12.807Z,25.23
2022-08-05T18:34:21.537Z,25.15
2022-08-05T18:37:34.619Z,25.25
2022-08-05T18:41:58.087Z,25.23
2022-08-05T18:44:08.087Z,25.38
2022-08-05T18:47:12.316Z,25.69
2022-08-05T18:50:42.247Z,25.78
2022-08-05T18:53:50.419Z,25.99
2022-08-05T18:56:53.790Z,26.69
2022-08-05T19:00:02.479Z,27.09
2022-08-05T19:03:07.370Z,26.71
2022-08-05T19:06:22.052Z,26.86
2022-08-05T19:09:25.326Z,26.62
2022-08-05T19:12:32.596Z,26.87
2022-08-05T19:15:58.828Z,26.08
2022-08-05T19:18:59.548Z,26.56
2022-08-05T19:22:02.626Z,27.83
2022-08-05T19:25:06.176Z,27.75
2022-08-05T19:28:11.091Z,27.07
2022-08-05T19:31:19.295Z,27.34
2022-08-05T19:34:25.153Z,27.71
2022-08-05T19:37:47.467Z,28.30
2022-08-05T19:40:52.978Z,27.67
2022-08-05T19:44:05.887Z,27.00
2022-08-05T19:47:16.359Z,27.18
2022-08-05T19:50:20.505Z,28.64
2022-08-05T19:54:05.012Z,28.16
2022-08-05T19:56:49.984Z,27.36
2022-08-05T20:00:00.823Z,27.29
2022-08-05T20:03:14.327Z,27.93
2022-08-05T20:06:29.323Z,27.69
2022-08-05T20:09:54.749Z,29.88
2022-08-05T20:12:56.741Z,29.82
2022-08-05T20:15:59.879Z,29.97
2022-08-05T20:19:03.872Z,30.93
2022-08-05T20:22:06.895Z,32.39
2022-08-05T20:25:12.706Z,32.38
2022-08-05T20:28:15.523Z,33.02
2022-08-05T20:31:21.804Z,33.31
2022-08-05T20:34:31.521Z,32.70
2022-08-05T20:38:06.307Z,33.03
2022-08-05T20:40:58.708Z,34.06
2022-08-05T20:44:17.421Z,33.23
2022-08-05T20:47:32.130Z,32.51
2022-08-05T20:50:39.705Z,33.36
2022-08-05T20:53:56.421Z,34.83
2022-08-05T20:57:00.379Z,35.09
2022-08-05T21:00:19.706Z,34.43
2022-08-05T21:03:24.661Z,35.05
2022-08-05T21:06:29.707Z,35.39
2022-08-05T21:09:33.723Z,36.08
2022-08-05T21:12:36.893Z,36.07
2022-08-05T21:15:44.459Z,36.27
2022-08-05T21:18:53.970Z,36.60
2022-08-05T21:21:58.519Z,36.84
2022-08-05T21:25:01.307Z,37.23
2022-08-05T21:28:05.028Z,37.72
2022-08-05T21:31:07.945Z,37.54
2022-08-05T21:34:12.556Z,37.61
2022-08-05T21:37:15.591Z,37.74
2022-08-05T21:40:18.676Z,37.81
2022-08-05T21:43:24.846Z,37.58
2022-08-05T21:46:28.615Z,37.53
2022-08-05T21:49:59.336Z,37.62
2022-08-05T21:52:58.915Z,37.55
2022-08-05T21:56:16.856Z,37.54
2022-08-05T21:59:23.904Z,37.58
2022-08-05T22:02:27.838Z,37.75
2022-08-05T22:05:48.588Z,37.85
2022-08-05T22:08:52.728Z,38.11
2022-08-05T22:11:55.864Z,38.32
2022-08-05T22:14:59.780Z,36.16
2022-08-05T22:18:03.061Z,38.17
2022-08-05T22:21:19.366Z,37.97
2022-08-05T22:24:51.820Z,38.21
2022-08-05T22:28:10.348Z,38.31
2022-08-05T22:31:15.273Z,36.60
2022-08-05T22:34:25.459Z,35.71
2022-08-05T22:37:59.039Z,35.22
2022-08-05T22:40:54.930Z,35.54
2022-08-05T22:43:59.443Z,36.31
2022-08-05T22:47:05.662Z,34.25
2022-08-05T22:50:20.330Z,34.08
2022-08-05T22:53:25.731Z,33.83
2022-08-05T22:56:39.970Z,33.35
2022-08-05T22:59:53.934Z,33.96
2022-08-05T23:02:58.104Z,33.02
2022-08-05T23:06:01.072Z,32.69
2022-08-05T23:09:26.951Z,33.37
2022-08-05T23:12:28.909Z,32.89
2022-08-05T23:15:35.346Z,33.13
2022-08-05T23:18:39.309Z,35.19
2022-08-05T23:21:48.341Z,36.74
2022-08-05T23:24:51.673Z,37.68
2022-08-05T23:27:57.838Z,37.32
2022-08-05T23:31:16.036Z,37.85
2022-08-05T23:34:24.598Z,37.84
2022-08-05T23:37:36.562Z,38.03
2022-08-05T23:40:39.877Z,37.76
2022-08-05T23:44:04.646Z,35.95
2022-08-05T23:47:15.025Z,35.53
2022-08-05T23:50:20.324Z,35.30
2022-08-05T23:53:24.560Z,35.36
2022-08-05T23:56:31.478Z,34.99
